Time;durP1;ratioP1;P1;durP2;ratioP2;P2;SDS_P1;SDS_P2;PMS_P1;PMS_P2;Temp;Humidity;BMP_temperature;BMP_pressure;BME280_temperature;BME280_humidity;BME280_pressure;Samples;Min_cycle;Max_cycle;Signal;HPM_P1;HPM_P2
2023/03/25 00:00:58;;;;;;;;;3.75;2.50;;;;;10.83;56.74;100537.84;4993065;27;46326;-66
2023/03/25 00:03:29;;;;;;;;;5.25;1.00;;;;;10.85;57.00;100527.31;4992235;27;45322;-66
2023/03/25 00:05:56;;;;;;;;;2.00;1.75;;;;;10.84;56.86;100534.34;4992345;28;45776;-65
2023/03/25 00:08:23;;;;;;;;;1.75;0.00;;;;;10.83;56.98;100529.09;4991854;27;45585;-65
2023/03/25 00:10:53;;;;;;;;;3.50;1.00;;;;;10.83;57.16;100534.34;4991855;28;46343;-65
2023/03/25 00:13:20;;;;;;;;;2.25;1.00;;;;;10.76;56.91;100524.88;4991986;27;45141;-65
2023/03/25 00:15:46;;;;;;;;;1.00;1.00;;;;;10.84;57.07;100538.72;4994288;28;45720;-65
2023/03/25 00:18:12;;;;;;;;;2.25;1.00;;;;;10.87;57.06;100528.16;4998089;27;45493;-65
2023/03/25 00:20:39;;;;;;;;;2.50;1.75;;;;;10.84;57.07;100536.97;4995501;28;45636;-65
2023/03/25 00:23:08;;;;;;;;;4.00;2.00;;;;;10.85;57.09;100543.09;4999053;27;45277;-65
2023/03/25 00:25:33;;;;;;;;;1.50;1.50;;;;;10.83;57.58;100540.47;4997607;28;47023;-65
2023/03/25 00:27:59;;;;;;;;;2.00;1.00;;;;;10.85;57.29;100548.34;4999215;27;45244;-65
2023/03/25 00:30:25;;;;;;;;;3.50;1.00;;;;;10.82;57.22;100541.38;4999133;28;45213;-65
2023/03/25 00:32:51;;;;;;;;;3.00;1.00;;;;;10.83;57.29;100543.13;4998513;28;45279;-65
2023/03/25 00:35:18;;;;;;;;;4.50;1.50;;;;;10.78;57.38;100531.81;4998955;28;45364;-65
2023/03/25 00:37:44;;;;;;;;;3.25;0.75;;;;;10.85;57.35;100540.44;4999185;28;45475;-65
2023/03/25 00:40:10;;;;;;;;;2.00;2.00;;;;;10.84;57.52;100534.34;4999089;28;46259;-65
2023/03/25 00:42:35;;;;;;;;;2.00;1.00;;;;;10.87;57.43;100539.53;4999193;27;45540;-65
2023/03/25 00:45:01;;;;;;;;;6.00;4.00;;;;;10.87;57.54;100541.31;4998872;28;45777;-65
2023/03/25 00:47:26;;;;;;;;;0.75;0.75;;;;;10.89;57.54;100542.13;4993543;28;45482;-65
2023/03/25 00:49:52;;;;;;;;;2.00;1.00;;;;;10.91;57.60;100545.59;4990385;27;45391;-65
2023/03/25 00:52:18;;;;;;;;;2.00;1.00;;;;;10.89;57.29;100536.84;4998743;28;45527;-65
2023/03/25 00:54:44;;;;;;;;;3.00;1.50;;;;;10.91;57.58;100534.22;4998766;28;45932;-65
2023/03/25 00:57:10;;;;;;;;;1.50;1.00;;;;;10.92;57.67;100536.81;4997524;27;45493;-65
2023/03/25 00:59:35;;;;;;;;;6.50;3.00;;;;;10.93;57.76;100530.66;4999039;28;45353;-65
2023/03/25 01:02:02;;;;;;;;;2.00;0.25;;;;;10.93;57.64;100533.31;4998823;28;45528;-65
2023/03/25 01:04:28;;;;;;;;;2.50;1.75;;;;;10.94;57.60;100532.38;4999308;28;45387;-65
2023/03/25 01:06:54;;;;;;;;;5.50;2.00;;;;;10.96;57.75;100537.63;4999960;27;45433;-65
2023/03/25 01:09:20;;;;;;;;;3.50;2.00;;;;;10.98;57.74;100528.81;4998818;28;45262;-65
2023/03/25 01:11:47;;;;;;;;;2.50;2.00;;;;;11.00;57.89;100529.63;4998741;28;45492;-65
2023/03/25 01:14:19;;;;;;;;;5.00;3.00;;;;;10.99;57.77;100538.44;4998777;28;46059;-65
2023/03/25 01:16:45;;;;;;;;;3.25;2.75;;;;;11.00;58.05;100528.78;4986168;27;45376;-65
2023/03/25 01:19:12;;;;;;;;;7.50;1.00;;;;;10.98;58.04;100528.81;4998692;28;45333;-65
2023/03/25 01:21:38;;;;;;;;;2.75;2.00;;;;;11.01;57.99;100531.38;4993559;28;45240;-65
2023/03/25 01:24:05;;;;;;;;;3.50;2.50;;;;;11.02;58.01;100537.50;4998450;28;46169;-65
2023/03/25 01:26:31;;;;;;;;;2.75;0.75;;;;;11.02;57.99;100540.16;4998654;28;45392;-65
2023/03/25 01:28:56;;;;;;;;;2.00;2.00;;;;;11.03;58.10;100541.84;4998550;28;45666;-65
2023/03/25 01:31:22;;;;;;;;;2.75;1.75;;;;;11.06;58.08;100544.44;4998663;28;45309;-65
2023/03/25 01:33:48;;;;;;;;;4.75;2.75;;;;;11.05;58.07;100538.28;4998519;28;45481;-65
2023/03/25 01:36:14;;;;;;;;;3.00;1.00;;;;;11.06;58.07;100536.56;4998629;28;45335;-65
2023/03/25 01:38:40;;;;;;;;;1.75;1.75;;;;;11.07;58.26;100535.66;4998524;28;45268;-65
2023/03/25 01:41:07;;;;;;;;;2.75;1.25;;;;;11.06;58.17;100534.78;4998116;28;45535;-65
2023/03/25 01:43:33;;;;;;;;;6.25;2.25;;;;;11.06;58.30;100526.03;4998324;28;45436;-65
2023/03/25 01:45:59;;;;;;;;;4.75;2.50;;;;;11.04;58.21;100517.31;4998474;28;45218;-65
2023/03/25 01:48:34;;;;;;;;;5.25;2.00;;;;;11.06;58.26;100519.00;4985480;28;45370;-66
2023/03/25 01:51:09;;;;;;;;;2.00;1.50;;;;;11.05;58.23;100514.63;4985981;28;45439;-65
2023/03/25 01:53:35;;;;;;;;;2.00;2.00;;;;;11.04;58.39;100505.03;4998075;28;46906;-65
2023/03/25 01:56:05;;;;;;;;;6.25;1.00;;;;;11.06;58.28;100515.50;4997059;28;45267;-65
2023/03/25 01:58:34;;;;;;;;;2.50;2.00;;;;;11.04;58.49;100491.00;4998522;28;45444;-65
2023/03/25 02:01:01;;;;;;;;;6.50;2.50;;;;;11.02;58.50;100491.03;4998294;28;45520;-65
2023/03/25 02:03:27;;;;;;;;;4.00;2.00;;;;;11.00;58.30;100491.97;4998156;28;45345;-65
2023/03/25 02:06:02;;;;;;;;;3.25;1.00;;;;;11.02;58.43;100491.03;4997224;28;45982;-65
2023/03/25 02:08:36;;;;;;;;;2.00;1.00;;;;;11.04;58.51;100493.63;4998279;28;45496;-65
2023/03/25 02:11:02;;;;;;;;;2.00;1.75;;;;;11.02;58.41;100498.94;4997536;28;45660;-65
2023/03/25 02:13:28;;;;;;;;;3.00;1.00;;;;;11.02;58.65;100505.97;4998007;28;46195;-65
2023/03/25 02:16:09;;;;;;;;;3.00;2.25;;;;;11.02;58.69;100498.06;5013337;28;46298;-65
2023/03/25 02:18:50;;;;;;;;;6.00;2.25;;;;;10.98;58.65;100499.00;4987067;27;45367;-65
2023/03/25 02:21:44;;;;;;;;;1.75;1.50;;;;;10.98;58.62;100497.25;5008354;27;45577;-65
2023/03/25 02:24:56;;;;;;;;;3.25;3.25;;;;;10.93;58.58;100483.34;5023875;27;46598;-65
2023/03/25 02:27:45;;;;;;;;;3.25;2.25;;;;;10.95;58.75;100489.41;4956567;28;45451;-65
2023/03/25 02:30:43;;;;;;;;;5.50;1.25;;;;;10.94;58.86;100487.69;4995920;28;45281;-65
2023/03/25 02:33:30;;;;;;;;;1.25;1.00;;;;;10.92;58.88;100484.25;4985223;27;45193;-65
2023/03/25 02:36:14;;;;;;;;;3.50;0.75;;;;;10.92;58.82;100480.72;4996143;28;45593;-65
2023/03/25 02:38:51;;;;;;;;;3.25;1.00;;;;;10.91;58.97;100477.25;4997765;28;45286;-65
2023/03/25 02:41:22;;;;;;;;;2.50;1.25;;;;;10.90;58.76;100491.28;4997975;28;45252;-65
2023/03/25 02:44:03;;;;;;;;;6.25;1.75;;;;;10.89;59.12;100471.13;4997702;28;45229;-65
2023/03/25 02:46:31;;;;;;;;;4.50;2.75;;;;;10.88;59.04;100458.91;4997660;28;46234;-65
2023/03/25 02:49:15;;;;;;;;;5.00;2.00;;;;;10.89;58.94;100474.66;4999187;28;45833;-65
2023/03/25 02:51:48;;;;;;;;;3.50;2.00;;;;;10.87;59.15;100455.41;4997603;28;45228;-65
2023/03/25 02:54:15;;;;;;;;;3.50;1.25;;;;;10.88;58.96;100462.41;4994569;27;45439;-66
2023/03/25 02:56:44;;;;;;;;;5.00;2.75;;;;;10.88;59.14;100461.53;5012652;28;46052;-65
2023/03/25 02:59:13;;;;;;;;;2.50;2.50;;;;;10.87;59.06;100462.44;4997541;28;45679;-65
2023/03/25 03:01:39;;;;;;;;;2.00;1.25;;;;;10.85;59.24;100461.59;4997537;28;45299;-65
2023/03/25 03:04:05;;;;;;;;;2.00;1.00;;;;;10.83;59.18;100463.38;4997623;28;45478;-65
2023/03/25 03:06:36;;;;;;;;;3.50;1.00;;;;;10.82;59.31;100453.78;4997001;28;45374;-65
2023/03/25 03:09:04;;;;;;;;;3.75;2.75;;;;;10.82;59.11;100470.41;4997313;28;45330;-65
2023/03/25 03:11:38;;;;;;;;;5.50;3.25;;;;;10.85;59.18;100472.09;4997168;28;45343;-65
2023/03/25 03:14:26;;;;;;;;;4.75;2.50;;;;;10.85;59.24;100472.09;4997667;28;45298;-65
2023/03/25 03:17:05;;;;;;;;;5.00;2.00;;;;;10.86;59.30;100476.47;4968030;28;46416;-65
2023/03/25 03:19:51;;;;;;;;;3.50;2.00;;;;;10.88;59.30;100472.91;4989281;27;45595;-65
2023/03/25 03:22:38;;;;;;;;;2.50;1.25;;;;;10.87;59.29;100455.41;4990256;27;46580;-65
2023/03/25 03:25:36;;;;;;;;;2.00;2.00;;;;;10.88;59.35;100467.66;4988776;28;45436;-65
2023/03/25 03:28:29;;;;;;;;;4.00;2.00;;;;;10.91;59.47;100476.38;4988477;28;45834;-65
2023/03/25 03:31:14;;;;;;;;;5.25;2.25;;;;;10.90;59.52;100475.50;4990259;28;45616;-65
2023/03/25 03:34:05;;;;;;;;;4.00;2.25;;;;;10.90;59.59;100465.00;4989083;28;45527;-65
2023/03/25 03:36:39;;;;;;;;;3.00;2.00;;;;;10.93;59.55;100475.47;4987858;28;45882;-65
2023/03/25 03:39:18;;;;;;;;;3.75;2.75;;;;;10.96;59.52;100490.31;4990060;28;46666;-65
2023/03/25 03:41:48;;;;;;;;;2.00;1.00;;;;;10.84;59.41;100473.00;4990160;28;45426;-65
2023/03/25 03:44:17;;;;;;;;;4.50;1.50;;;;;10.89;59.59;100469.38;4987988;28;45215;-65
2023/03/25 03:46:58;;;;;;;;;1.75;0.00;;;;;10.94;59.61;100479.78;4992131;28;45560;-64
2023/03/25 03:49:32;;;;;;;;;4.75;2.00;;;;;10.97;59.66;100478.88;4981952;28;47249;-65
2023/03/25 03:52:10;;;;;;;;;3.25;1.00;;;;;10.95;59.59;100465.75;4994849;28;45551;-65
2023/03/25 03:54:46;;;;;;;;;2.50;2.50;;;;;10.94;59.63;100479.78;4987308;28;45312;-65
2023/03/25 03:57:21;;;;;;;;;4.50;3.00;;;;;10.96;59.80;100480.66;4995285;28;45437;-65
2023/03/25 04:00:20;;;;;;;;;4.00;1.00;;;;;10.97;59.34;100485.00;4996680;28;45359;-65
2023/03/25 04:02:52;;;;;;;;;3.25;0.25;;;;;10.97;59.46;100486.75;4991137;28;45622;-65
2023/03/25 04:05:22;;;;;;;;;3.25;0.75;;;;;10.94;59.55;100492.09;4996417;28;45393;-65
2023/03/25 04:07:57;;;;;;;;;1.00;1.00;;;;;10.98;59.44;100491.13;4996694;28;45166;-65
2023/03/25 04:10:28;;;;;;;;;1.50;0.75;;;;;10.99;59.08;100500.75;4984333;27;47272;-65
2023/03/25 04:12:57;;;;;;;;;1.50;1.00;;;;;11.00;59.20;100499.84;4996385;28;46708;-65
2023/03/25 04:15:22;;;;;;;;;2.00;1.00;;;;;10.98;59.08;100499.91;4996671;28;45223;-65
2023/03/25 04:17:47;;;;;;;;;0.75;0.75;;;;;10.98;59.14;100499.00;4996422;28;45173;-65
2023/03/25 04:20:22;;;;;;;;;1.25;0.50;;;;;10.95;59.11;100502.56;4995553;28;46139;-65
2023/03/25 04:22:48;;;;;;;;;1.75;1.00;;;;;10.97;59.34;100498.16;5008483;28;45217;-65
2023/03/25 04:25:13;;;;;;;;;1.25;1.25;;;;;10.98;59.15;100499.00;4996375;28;45389;-64
2023/03/25 04:27:39;;;;;;;;;1.50;1.00;;;;;10.97;59.19;100492.00;5011749;28;45344;-65
2023/03/25 04:30:06;;;;;;;;;1.25;1.00;;;;;10.95;59.16;100502.56;4999365;28;45982;-64
2023/03/25 04:32:31;;;;;;;;;2.75;1.00;;;;;10.92;59.05;100502.63;4999072;28;45324;-65
2023/03/25 04:34:57;;;;;;;;;3.00;1.00;;;;;10.94;59.35;100508.72;4998821;28;51970;-65
2023/03/25 04:37:24;;;;;;;;;1.25;1.00;;;;;10.95;59.02;100504.34;4999305;28;46465;-65
2023/03/25 04:39:50;;;;;;;;;1.00;1.00;;;;;10.92;59.08;100504.38;4999339;28;47021;-65
2023/03/25 04:42:16;;;;;;;;;3.00;2.50;;;;;10.92;59.11;100513.16;4999227;28;45216;-65
2023/03/25 04:44:44;;;;;;;;;2.00;0.00;;;;;10.93;59.11;100525.41;4999431;28;45479;-65
2023/03/25 04:47:13;;;;;;;;;2.25;1.25;;;;;10.92;59.30;100538.56;4998494;28;45451;-65
2023/03/25 04:49:41;;;;;;;;;5.00;0.00;;;;;10.91;59.00;100537.72;4988489;28;47112;-65
2023/03/25 04:52:08;;;;;;;;;4.00;1.00;;;;;10.91;59.06;100532.44;4998853;28;45257;-65
2023/03/25 04:54:33;;;;;;;;;3.25;1.50;;;;;10.93;59.17;100522.78;4998998;28;45271;-65
2023/03/25 04:57:00;;;;;;;;;1.25;1.00;;;;;10.93;59.01;100538.56;4999011;28;45156;-65
2023/03/25 04:59:25;;;;;;;;;2.00;0.75;;;;;10.92;59.27;100531.56;4998589;28;46299;-65
2023/03/25 05:01:51;;;;;;;;;2.25;1.00;;;;;10.91;59.12;100536.84;4998830;28;45376;-64
2023/03/25 05:04:17;;;;;;;;;2.50;1.00;;;;;10.94;59.10;100528.91;4999370;28;45370;-65
2023/03/25 05:06:46;;;;;;;;;1.00;1.00;;;;;10.93;59.05;100533.31;4998740;28;45323;-64
2023/03/25 05:09:14;;;;;;;;;5.50;0.75;;;;;10.93;59.06;100549.06;4998995;28;46359;-65
2023/03/25 05:11:40;;;;;;;;;1.75;0.75;;;;;10.91;59.19;100539.47;4998795;28;45479;-64
2023/03/25 05:14:07;;;;;;;;;1.00;1.00;;;;;10.89;59.23;100550.88;4999032;28;45467;-64
2023/03/25 05:16:33;;;;;;;;;2.50;1.50;;;;;10.87;59.18;100536.91;4998709;28;45342;-64
2023/03/25 05:18:58;;;;;;;;;1.75;1.75;;;;;10.86;59.01;100557.97;4998577;28;46233;-64
2023/03/25 05:21:24;;;;;;;;;2.25;1.00;;;;;10.83;59.20;100543.13;4992561;27;45456;-64
2023/03/25 05:23:51;;;;;;;;;1.00;1.00;;;;;10.84;58.90;100543.97;4997800;28;45350;-64
2023/03/25 05:26:16;;;;;;;;;1.00;1.00;;;;;10.83;59.16;100558.00;4998654;28;45245;-64
2023/03/25 05:28:42;;;;;;;;;2.25;1.00;;;;;10.81;58.87;100550.16;4998623;28;46553;-65
2023/03/25 05:31:07;;;;;;;;;0.00;0.00;;;;;10.82;59.08;100556.28;4998568;28;45158;-65
2023/03/25 05:33:42;;;;;;;;;1.75;1.00;;;;;10.82;59.13;100551.03;4998856;28;45189;-65
2023/03/25 05:36:09;;;;;;;;;1.25;0.00;;;;;10.83;58.96;100563.25;4996702;28;45564;-64
2023/03/25 05:38:36;;;;;;;;;0.50;0.00;;;;;10.82;59.40;100574.69;4998395;28;46387;-64
2023/03/25 05:41:01;;;;;;;;;1.25;0.50;;;;;10.83;59.01;100568.50;4997358;28;45350;-65
2023/03/25 05:43:26;;;;;;;;;5.00;1.25;;;;;10.83;58.93;100569.41;4998786;28;45409;-65
2023/03/25 05:45:52;;;;;;;;;3.50;2.25;;;;;10.83;58.96;100579.91;4998419;28;45640;-64
2023/03/25 05:48:17;;;;;;;;;2.00;2.00;;;;;10.83;59.17;100584.28;4996675;28;46566;-65
2023/03/25 05:50:43;;;;;;;;;2.00;2.00;;;;;10.83;58.97;100592.16;4998203;28;45493;-64
2023/03/25 05:53:14;;;;;;;;;2.50;1.00;;;;;10.87;59.03;100591.25;4998423;28;45420;-64
2023/03/25 05:55:39;;;;;;;;;4.50;2.00;;;;;10.81;58.99;100586.09;4998032;27;45242;-64
2023/03/25 05:58:05;;;;;;;;;2.25;1.00;;;;;10.86;59.06;100594.75;5013472;28;45921;-64
2023/03/25 06:00:31;;;;;;;;;1.75;1.00;;;;;10.87;59.01;100596.50;4998348;28;45453;-64
2023/03/25 06:02:57;;;;;;;;;2.75;1.00;;;;;10.86;58.98;100606.13;4998458;28;45366;-65
2023/03/25 06:05:24;;;;;;;;;3.50;1.00;;;;;10.84;58.95;100620.19;4998035;28;45344;-65
2023/03/25 06:07:54;;;;;;;;;2.25;2.25;;;;;10.84;58.72;100600.06;4998069;28;46230;-64
2023/03/25 06:10:21;;;;;;;;;1.00;0.00;;;;;10.84;58.88;100610.56;4984037;28;45296;-64
2023/03/25 06:12:47;;;;;;;;;1.00;1.00;;;;;10.82;58.75;100599.22;4998178;28;45272;-65
2023/03/25 06:15:16;;;;;;;;;4.00;1.00;;;;;10.84;58.86;100609.69;4998136;28;45288;-64
2023/03/25 06:17:45;;;;;;;;;3.75;2.75;;;;;10.85;58.72;100616.69;4998077;28;46131;-65
2023/03/25 06:20:11;;;;;;;;;5.00;2.00;;;;;10.87;58.72;100620.16;4997318;28;45368;-64
2023/03/25 06:22:43;;;;;;;;;4.25;2.00;;;;;10.88;58.56;100619.28;4993033;28;45369;-64
2023/03/25 06:25:18;;;;;;;;;1.25;1.00;;;;;10.89;58.58;100631.50;4997875;28;45508;-64
2023/03/25 06:27:45;;;;;;;;;2.00;2.00;;;;;10.84;58.52;100626.34;4997749;28;46075;-65
2023/03/25 06:30:15;;;;;;;;;3.50;2.00;;;;;10.87;58.58;100642.06;4998107;28;45414;-65
2023/03/25 06:32:40;;;;;;;;;6.25;3.00;;;;;10.86;58.70;100639.47;4997896;28;45354;-64
2023/03/25 06:35:08;;;;;;;;;1.75;1.00;;;;;10.87;58.65;100633.31;4997681;28;45421;-64
2023/03/25 06:37:34;;;;;;;;;0.50;0.50;;;;;10.87;58.50;100655.19;4997735;28;45925;-65
2023/03/25 06:40:00;;;;;;;;;1.25;1.25;;;;;10.88;58.48;100650.81;4997735;28;45257;-64
2023/03/25 06:42:26;;;;;;;;;2.50;2.50;;;;;10.85;58.59;100640.34;4997947;28;46711;-65
2023/03/25 06:44:52;;;;;;;;;1.75;1.00;;;;;10.86;58.66;100647.34;4997886;28;45410;-65
2023/03/25 06:47:18;;;;;;;;;4.00;2.00;;;;;10.84;58.61;100644.75;4990444;28;46240;-64
2023/03/25 06:49:43;;;;;;;;;4.00;2.00;;;;;10.86;58.55;100665.75;5010619;28;46037;-64
2023/03/25 06:52:09;;;;;;;;;2.25;1.00;;;;;10.86;58.57;100656.09;4990741;28;45554;-65
2023/03/25 06:54:34;;;;;;;;;3.25;1.50;;;;;10.82;58.56;100651.78;4989916;27;45473;-64
2023/03/25 06:56:59;;;;;;;;;2.75;2.00;;;;;10.87;58.57;100664.84;4989795;27;47099;-65
2023/03/25 06:59:25;;;;;;;;;2.00;1.50;;;;;10.87;58.72;100664.84;4988984;28;45606;-64
2023/03/25 07:01:50;;;;;;;;;4.25;2.75;;;;;10.88;58.59;100659.56;4989092;28;50037;-64
2023/03/25 07:04:16;;;;;;;;;2.00;2.00;;;;;10.93;58.51;100667.38;4989206;28;45807;-64
2023/03/25 07:06:41;;;;;;;;;3.50;2.00;;;;;10.93;58.47;100677.00;4989011;27;46181;-65
2023/03/25 07:09:07;;;;;;;;;3.00;1.00;;;;;10.92;58.77;100660.38;4989828;28;45426;-62
2023/03/25 07:11:33;;;;;;;;;1.50;0.00;;;;;10.95;58.39;100657.69;4988046;27;45484;-67
2023/03/25 07:13:58;;;;;;;;;6.50;3.50;;;;;10.95;58.73;100662.94;4988692;27;45527;-68
2023/03/25 07:16:24;;;;;;;;;2.50;1.00;;;;;10.94;58.67;100674.34;4988088;27;45478;-66
2023/03/25 07:18:50;;;;;;;;;3.00;2.50;;;;;10.95;58.38;100665.56;4991496;28;45199;-67
2023/03/25 07:21:16;;;;;;;;;4.00;2.25;;;;;11.01;58.44;100673.38;4989928;28;45549;-68
2023/03/25 07:23:42;;;;;;;;;4.50;1.50;;;;;11.00;58.58;100669.00;4995851;28;45427;-68
2023/03/25 07:26:07;;;;;;;;;3.25;1.75;;;;;11.07;58.28;100680.28;5000707;28;45463;-67
2023/03/25 07:28:33;;;;;;;;;0.00;0.00;;;;;11.09;58.35;100672.38;5014138;28;45872;-68
2023/03/25 07:30:58;;;;;;;;;3.00;3.00;;;;;11.08;58.26;100671.53;5016493;28;45369;-68
2023/03/25 07:33:24;;;;;;;;;3.25;2.00;;;;;11.10;58.39;100663.59;5015397;28;45425;-68
2023/03/25 07:35:50;;;;;;;;;3.25;3.00;;;;;11.09;58.45;100675.84;5001765;28;47410;-69
2023/03/25 07:38:15;;;;;;;;;4.50;2.00;;;;;11.17;58.29;100673.97;5015312;28;45467;-68
2023/03/25 07:40:40;;;;;;;;;5.00;3.00;;;;;11.16;58.29;100681.91;5001960;28;45345;-64
2023/03/25 07:43:08;;;;;;;;;3.25;1.50;;;;;11.18;58.24;100680.09;5016472;28;45419;-67
2023/03/25 07:45:34;;;;;;;;;3.50;1.00;;;;;11.18;58.05;100695.88;5016339;28;46167;-65
2023/03/25 07:48:00;;;;;;;;;3.25;1.00;;;;;11.24;58.06;100689.66;4993074;28;45253;-67
2023/03/25 07:50:26;;;;;;;;;3.25;3.00;;;;;11.25;57.94;100683.50;4992689;28;45362;-67
2023/03/25 07:52:52;;;;;;;;;3.00;1.50;;;;;11.28;57.94;100701.84;5011672;28;45509;-68
2023/03/25 07:55:18;;;;;;;;;3.00;3.00;;;;;11.25;57.92;100697.50;4996120;27;46301;-68
2023/03/25 07:57:43;;;;;;;;;2.50;1.50;;;;;11.29;57.90;100712.34;4996460;28;45275;-68
2023/03/25 08:00:10;;;;;;;;;5.25;3.25;;;;;11.31;58.23;100713.19;4996608;28;45229;-68
2023/03/25 08:02:35;;;;;;;;;4.50;2.00;;;;;11.35;57.91;100716.63;5011885;28;45435;-67
2023/03/25 08:05:01;;;;;;;;;4.50;3.00;;;;;11.41;57.66;100707.75;5002465;28;45808;-68
2023/03/25 08:07:27;;;;;;;;;3.25;1.00;;;;;11.42;57.93;100717.38;5019603;28;45286;-68
2023/03/25 08:09:52;;;;;;;;;2.75;2.00;;;;;11.47;57.69;100715.53;5019271;28;45396;-68
2023/03/25 08:12:18;;;;;;;;;1.50;1.00;;;;;11.50;57.73;100711.09;5019319;28;45269;-68
2023/03/25 08:14:43;;;;;;;;;2.00;1.00;;;;;11.47;57.71;100713.78;5019043;28;45750;-68
2023/03/25 08:17:09;;;;;;;;;3.50;2.00;;;;;11.58;57.56;100732.00;5019228;28;45315;-68
2023/03/25 08:19:35;;;;;;;;;8.00;3.00;;;;;11.55;57.56;100721.53;5016983;28;45495;-68
2023/03/25 08:22:01;;;;;;;;;4.00;2.00;;;;;11.71;57.41;100754.56;4999360;28;45634;-68
2023/03/25 08:24:28;;;;;;;;;4.25;2.00;;;;;11.74;57.23;100737.00;5014861;28;46030;-68
2023/03/25 08:26:54;;;;;;;;;3.00;2.00;;;;;11.76;57.33;100729.91;5018151;28;45311;-68
2023/03/25 08:29:20;;;;;;;;;4.00;2.00;;;;;11.82;57.32;100749.13;5018872;28;45301;-68
2023/03/25 08:31:50;;;;;;;;;3.25;2.50;;;;;11.84;57.10;100739.41;5019302;28;45299;-68
2023/03/25 08:34:17;;;;;;;;;2.25;1.25;;;;;11.91;57.11;100752.44;5019040;28;47167;-68
2023/03/25 08:36:43;;;;;;;;;3.00;2.00;;;;;11.94;57.07;100734.81;5018953;28;45356;-68
2023/03/25 08:39:10;;;;;;;;;2.75;1.00;;;;;11.92;57.05;100733.13;5018980;28;45309;-68
2023/03/25 08:41:39;;;;;;;;;2.50;1.00;;;;;11.94;56.87;100734.81;5019277;28;45161;-68
2023/03/25 08:44:05;;;;;;;;;2.00;1.00;;;;;12.00;56.75;100737.38;5018966;28;45397;-68
2023/03/25 08:46:31;;;;;;;;;3.75;1.00;;;;;12.05;56.86;100755.72;5019042;28;45390;-68
2023/03/25 08:48:56;;;;;;;;;2.50;2.50;;;;;12.11;57.08;100747.69;5005304;28;45330;-69
2023/03/25 08:51:21;;;;;;;;;3.25;0.00;;;;;12.16;56.74;100742.31;5018882;28;45373;-68
2023/03/25 08:53:47;;;;;;;;;4.75;2.50;;;;;12.19;56.46;100747.53;5004025;28;45702;-68
2023/03/25 08:56:12;;;;;;;;;3.00;1.50;;;;;12.19;56.67;100750.19;4998885;28;45399;-68
2023/03/25 08:58:37;;;;;;;;;2.50;1.00;;;;;12.19;56.80;100753.66;5015673;28;45349;-66
2023/03/25 09:01:03;;;;;;;;;3.50;1.25;;;;;12.23;56.62;100746.56;5009574;28;45295;-68
2023/03/25 09:03:29;;;;;;;;;2.00;2.00;;;;;12.30;56.71;100756.09;5018621;28;45296;-68
2023/03/25 09:05:54;;;;;;;;;2.00;0.00;;;;;12.31;56.43;100747.28;5018602;28;45317;-68
2023/03/25 09:08:20;;;;;;;;;2.75;1.50;;;;;12.36;56.20;100744.53;5019016;28;45328;-68
2023/03/25 09:10:45;;;;;;;;;1.00;1.00;;;;;12.39;56.28;100756.78;5018566;28;45241;-68
2023/03/25 09:13:11;;;;;;;;;1.50;1.00;;;;;12.38;56.38;100752.41;5018594;28;46094;-68
2023/03/25 09:15:36;;;;;;;;;1.00;1.00;;;;;12.41;56.11;100754.97;5017218;28;45418;-68
2023/03/25 09:18:02;;;;;;;;;3.75;1.75;;;;;12.42;56.33;100762.00;5017566;28;45433;-68
2023/03/25 09:20:27;;;;;;;;;2.75;1.75;;;;;12.45;56.17;100752.25;5018146;28;45230;-68
2023/03/25 09:22:53;;;;;;;;;4.00;2.00;;;;;12.47;56.17;100760.13;5018385;28;45237;-68
2023/03/25 09:25:18;;;;;;;;;3.50;1.00;;;;;12.51;56.23;100756.50;5018528;28;45206;-68
2023/03/25 09:27:44;;;;;;;;;8.25;3.00;;;;;12.52;56.18;100756.47;5018671;28;45238;-68
2023/03/25 09:30:10;;;;;;;;;6.75;2.25;;;;;12.55;55.98;100763.44;5018547;28;45526;-68
2023/03/25 09:32:35;;;;;;;;;1.00;1.00;;;;;12.61;56.19;100767.72;5017210;28;48352;-68
2023/03/25 09:35:00;;;;;;;;;2.75;0.75;;;;;12.63;55.75;100766.78;5018351;28;45287;-68
2023/03/25 09:37:26;;;;;;;;;1.00;1.00;;;;;12.68;55.89;100772.81;5018569;28;45310;-68
2023/03/25 09:39:51;;;;;;;;;2.00;1.00;;;;;12.73;55.92;100759.53;5018306;28;45548;-68
2023/03/25 09:42:23;;;;;;;;;4.50;2.00;;;;;12.76;55.72;100777.91;5020272;28;45972;-68
2023/03/25 09:45:05;;;;;;;;;3.00;0.50;;;;;12.82;55.45;100801.50;5018176;28;45248;-68
2023/03/25 09:47:33;;;;;;;;;2.50;2.00;;;;;12.88;55.53;100770.63;5015648;28;45406;-68
2023/03/25 09:50:03;;;;;;;;;2.00;2.00;;;;;12.84;55.63;100777.75;4998180;28;45782;-68
2023/03/25 09:52:37;;;;;;;;;1.75;1.50;;;;;12.87;55.62;100798.78;5002648;28;46334;-68
2023/03/25 09:55:10;;;;;;;;;2.00;2.00;;;;;12.91;55.01;100797.81;4999976;28;45458;-68
2023/03/25 09:57:45;;;;;;;;;3.50;0.75;;;;;12.94;55.30;100778.41;5016975;28;45435;-68
2023/03/25 10:00:21;;;;;;;;;1.25;1.00;;;;;12.94;55.30;100802.13;5018047;28;45558;-69
2023/03/25 10:02:55;;;;;;;;;2.75;1.25;;;;;12.94;55.25;100789.84;5018031;28;45318;-68
2023/03/25 10:05:42;;;;;;;;;1.50;1.00;;;;;12.98;55.29;100798.53;5016629;28;45366;-68
2023/03/25 10:08:29;;;;;;;;;1.75;0.75;;;;;12.98;55.40;100794.13;5018128;28;45425;-68
2023/03/25 10:11:18;;;;;;;;;4.00;1.00;;;;;12.99;55.33;100790.59;5017677;28;45330;-68
2023/03/25 10:14:04;;;;;;;;;3.75;1.00;;;;;13.00;55.12;100800.25;5017809;28;45480;-68
2023/03/25 10:16:44;;;;;;;;;3.50;0.50;;;;;13.07;55.38;100803.59;5017857;28;45372;-68
2023/03/25 10:19:21;;;;;;;;;2.00;2.00;;;;;13.09;55.09;100806.19;5017835;28;45349;-68
2023/03/25 10:22:00;;;;;;;;;2.50;2.25;;;;;13.12;55.17;100814.06;5017876;28;45429;-68
2023/03/25 10:24:49;;;;;;;;;2.00;1.75;;;;;13.18;55.50;100811.25;5017512;28;45542;-68
2023/03/25 10:27:25;;;;;;;;;3.00;1.25;;;;;13.21;54.88;100816.47;5016904;28;45469;-69
2023/03/25 10:29:56;;;;;;;;;4.75;1.75;;;;;13.24;55.33;100818.16;5017852;28;45433;-68
2023/03/25 10:32:35;;;;;;;;;1.25;1.25;;;;;13.21;55.22;100829.66;5017521;28;45306;-68
2023/03/25 10:35:04;;;;;;;;;1.75;1.00;;;;;13.26;54.89;100819.84;5017645;28;45326;-68
2023/03/25 10:37:40;;;;;;;;;0.50;0.25;;;;;13.33;55.18;100825.84;5017527;28;45252;-68
2023/03/25 10:40:15;;;;;;;;;3.00;0.00;;;;;13.39;55.14;100809.88;5034038;27;45334;-69
2023/03/25 10:42:54;;;;;;;;;2.50;2.25;;;;;13.43;55.33;100815.97;5017609;28;45382;-68
2023/03/25 10:45:21;;;;;;;;;2.50;1.00;;;;;13.48;55.24;100817.59;5016003;28;47098;-69
2023/03/25 10:47:49;;;;;;;;;1.25;1.25;;;;;13.52;55.28;100817.50;5012278;28;45297;-66
2023/03/25 10:50:17;;;;;;;;;3.00;3.00;;;;;13.59;55.06;100801.47;4999470;28;45281;-68
2023/03/25 10:52:46;;;;;;;;;1.25;1.25;;;;;13.65;55.00;100814.50;5012388;28;45374;-68
2023/03/25 10:55:31;;;;;;;;;2.75;0.50;;;;;13.74;54.67;100805.47;4999924;28;45381;-69
2023/03/25 10:57:57;;;;;;;;;0.75;0.75;;;;;13.79;54.90;100813.28;5017298;28;45174;-68
2023/03/25 11:00:25;;;;;;;;;4.00;0.75;;;;;13.84;54.93;100806.13;5017153;28;45340;-69
2023/03/25 11:02:50;;;;;;;;;1.50;1.00;;;;;13.89;54.49;100816.56;5017227;28;45231;-68
2023/03/25 11:05:22;;;;;;;;;3.50;0.75;;;;;13.94;54.39;100797.03;5016692;28;45332;-68
2023/03/25 11:07:52;;;;;;;;;6.00;2.00;;;;;13.92;54.21;100809.44;5017109;28;45293;-67
2023/03/25 11:10:28;;;;;;;;;2.00;2.00;;;;;13.93;54.62;100811.13;5016792;28;45360;-68
2023/03/25 11:12:57;;;;;;;;;1.75;1.75;;;;;13.95;54.27;100797.91;5016920;28;45433;-68
2023/03/25 11:15:32;;;;;;;;;2.25;1.50;;;;;13.99;53.95;100802.19;5016898;28;46249;-68
2023/03/25 11:18:02;;;;;;;;;1.75;1.00;;;;;14.00;54.01;100806.56;5016842;28;45176;-68
2023/03/25 11:20:34;;;;;;;;;2.00;1.75;;;;;14.05;53.82;100814.34;5016755;28;45328;-68
2023/03/25 11:23:06;;;;;;;;;3.00;2.00;;;;;14.03;54.12;100814.41;5016789;28;45256;-68
2023/03/25 11:25:38;;;;;;;;;4.00;3.50;;;;;14.04;54.67;100839.06;5016705;28;46149;-68
2023/03/25 11:28:20;;;;;;;;;2.00;0.25;;;;;14.02;53.80;100810.03;5016544;28;45353;-65
2023/03/25 11:31:09;;;;;;;;;2.00;2.00;;;;;14.03;54.25;100810.91;5016684;28;45263;-65
2023/03/25 11:33:37;;;;;;;;;3.00;3.00;;;;;14.10;53.68;100808.03;5016594;28;45436;-68
2023/03/25 11:36:11;;;;;;;;;2.75;2.00;;;;;14.10;53.90;100812.44;5015085;28;47292;-68